createdAt,value
2022-09-10T00:03:42.226Z,14.41
2022-09-10T00:08:42.897Z,14.43
2022-09-10T00:13:39.861Z,14.44
2022-09-10T00:18:39.856Z,14.43
2022-09-10T00:23:39.417Z,14.41
2022-09-10T00:28:39.083Z,14.41
2022-09-10T00:33:37.893Z,14.4
2022-09-10T00:38:38.202Z,14.38
2022-09-10T00:43:38.061Z,14.37
2022-09-10T00:48:37.742Z,14.37
2022-09-10T00:53:36.417Z,14.38
2022-09-10T00:58:36.094Z,14.36
2022-09-10T00:59:57.057Z,14.36
2022-09-10T01:04:56.249Z,14.37
2022-09-10T01:09:55.773Z,14.29
2022-09-10T01:14:53.891Z,14.26
2022-09-10T01:19:53.319Z,14.18
2022-09-10T01:24:53.463Z,14.14
2022-09-10T01:29:53.846Z,14.1
2022-09-10T01:34:52.142Z,14.09
2022-09-10T01:39:52.220Z,14.08
2022-09-10T01:44:50.930Z,14.1
2022-09-10T01:49:50.605Z,14.1
2022-09-10T01:54:48.373Z,14.07
2022-09-10T01:59:18.599Z,14.06
2022-09-10T02:04:19.183Z,14.07
2022-09-10T02:09:18.494Z,14.05
2022-09-10T02:14:18.865Z,14.06
2022-09-10T02:19:18.161Z,14.08
2022-09-10T02:24:19.821Z,14.15
2022-09-10T02:29:06.079Z,14.13
2022-09-10T02:34:06.010Z,14.19
2022-09-10T02:39:05.699Z,14.22
2022-09-10T02:44:05.408Z,14.26
2022-09-10T02:49:04.539Z,14.3
2022-09-10T02:54:03.719Z,14.31
2022-09-10T02:58:57.602Z,14.34
2022-09-10T03:03:56.829Z,14.38
2022-09-10T03:08:56.073Z,14.41
2022-09-10T03:13:54.296Z,14.42
2022-09-10T03:18:53.928Z,14.43
2022-09-10T03:23:54.505Z,14.44
2022-09-10T03:28:53.593Z,14.41
2022-09-10T03:33:53.694Z,14.41
2022-09-10T03:38:53.399Z,14.4
2022-09-10T03:43:52.923Z,14.42
2022-09-10T03:48:54.692Z,14.44
2022-09-10T03:53:51.704Z,14.47
2022-09-10T03:58:51.322Z,14.5
2022-09-10T04:03:50.776Z,14.52
2022-09-10T04:08:49.882Z,14.53
2022-09-10T04:13:48.179Z,14.56
2022-09-10T04:18:47.748Z,14.58
2022-09-10T04:23:47.848Z,14.61
2022-09-10T04:28:46.944Z,14.64
2022-09-10T04:33:47.546Z,14.66
2022-09-10T04:38:44.723Z,14.69
2022-09-10T04:43:44.521Z,14.73
2022-09-10T04:48:44.390Z,14.8
2022-09-10T04:53:43.932Z,14.86
2022-09-10T04:58:43.185Z,14.87
2022-09-10T05:03:42.746Z,14.89
2022-09-10T05:08:43.252Z,14.9
2022-09-10T05:13:42.336Z,14.89
2022-09-10T05:18:41.912Z,14.88
2022-09-10T05:23:41.590Z,14.89
2022-09-10T05:28:40.864Z,14.88
2022-09-10T05:33:40.301Z,14.88
2022-09-10T05:38:40.031Z,14.89
2022-09-10T05:43:38.176Z,14.88
2022-09-10T05:48:41.443Z,14.89
2022-09-10T05:53:37.408Z,14.87
2022-09-10T05:58:38.135Z,14.86
2022-09-10T06:03:35.029Z,14.85
2022-09-10T06:08:34.714Z,14.83
2022-09-10T06:13:34.517Z,14.81
2022-09-10T06:18:34.140Z,14.8
2022-09-10T06:23:33.206Z,14.81
2022-09-10T06:28:32.750Z,14.84
2022-09-10T06:33:32.185Z,14.85
2022-09-10T06:38:31.744Z,14.88
2022-09-10T06:43:31.141Z,14.92
2022-09-10T06:48:40.005Z,14.96
2022-09-10T06:53:30.885Z,15
2022-09-10T06:58:30.439Z,15.04
2022-09-10T06:59:51.986Z,15.05
2022-09-10T07:04:51.569Z,15.09
2022-09-10T07:09:51.212Z,15.14
2022-09-10T07:14:50.412Z,15.26
2022-09-10T07:19:49.718Z,15.36
2022-09-10T07:24:48.219Z,15.57
2022-09-10T07:29:47.577Z,15.79
2022-09-10T07:34:47.827Z,15.95
2022-09-10T07:39:46.971Z,16.27
2022-09-10T07:44:47.682Z,16.68
2022-09-10T07:49:44.947Z,16.6
2022-09-10T07:54:44.619Z,16.54
2022-09-10T07:58:49.873Z,16.48
2022-09-10T08:03:49.532Z,16.39
2022-09-10T08:08:48.414Z,16.43
2022-09-10T08:13:48.581Z,16.42
2022-09-10T08:18:48.475Z,16.44
2022-09-10T08:23:49.349Z,16.59
2022-09-10T08:28:46.650Z,16.86
2022-09-10T08:33:46.286Z,16.94
2022-09-10T08:38:46.505Z,17.12
2022-09-10T08:43:46.383Z,17.37
2022-09-10T08:48:45.468Z,17.46
2022-09-10T08:53:45.416Z,17.43
2022-09-10T08:58:44.759Z,17.27
2022-09-10T09:03:44.060Z,17.17
2022-09-10T09:08:43.507Z,17.19
2022-09-10T09:13:41.811Z,17.14
2022-09-10T09:18:41.361Z,17.09
2022-09-10T09:23:51.939Z,17.1
2022-09-10T09:28:40.901Z,17.27
2022-09-10T09:33:41.502Z,17.44
2022-09-10T09:38:38.899Z,17.66
2022-09-10T09:43:38.417Z,17.7
2022-09-10T09:48:38.242Z,17.62
2022-09-10T09:53:39.017Z,17.66
2022-09-10T09:58:36.181Z,17.78
2022-09-10T10:03:36.064Z,17.73
2022-09-10T10:08:36.801Z,17.73
2022-09-10T10:13:34.806Z,17.79
2022-09-10T10:18:34.323Z,17.89
2022-09-10T10:23:34.399Z,18.14
2022-09-10T10:28:35.257Z,18.26
2022-09-10T10:33:33.251Z,18.37
2022-09-10T10:38:32.750Z,18.7
2022-09-10T10:43:32.853Z,18.75
2022-09-10T10:48:32.566Z,18.98
2022-09-10T10:53:33.164Z,19.11
2022-09-10T10:58:30.397Z,18.87
2022-09-10T10:59:51.419Z,18.79
2022-09-10T11:04:51.507Z,18.59
2022-09-10T11:09:52.485Z,18.44
2022-09-10T11:14:49.280Z,18.41
2022-09-10T11:19:56.460Z,18.51
2022-09-10T11:24:49.161Z,18.82
2022-09-10T11:29:48.645Z,19.54
2022-09-10T11:34:48.236Z,20.2
2022-09-10T11:39:48.571Z,20.15
2022-09-10T11:44:48.775Z,19.7
2022-09-10T11:49:46.535Z,19.29
2022-09-10T11:54:45.940Z,19.37
2022-09-10T11:58:59.238Z,19.92
2022-09-10T12:03:58.841Z,19.92
2022-09-10T12:08:59.524Z,19.65
2022-09-10T12:13:56.519Z,19.58
2022-09-10T12:18:55.951Z,19.29
2022-09-10T12:24:31.021Z,19.01
2022-09-10T12:28:54.962Z,18.92
2022-09-10T12:33:54.393Z,18.93
2022-09-10T12:38:53.168Z,18.74
2022-09-10T12:43:53.574Z,18.28
2022-09-10T12:48:50.520Z,17.99
2022-09-10T12:53:50.087Z,17.96
2022-09-10T12:58:49.842Z,17.95
2022-09-10T13:03:49.149Z,18.31
2022-09-10T13:08:48.416Z,18.65
2022-09-10T13:13:48.154Z,18.94
2022-09-10T13:18:47.737Z,19.32
2022-09-10T13:23:48.193Z,19.24
2022-09-10T13:28:47.036Z,18.95
2022-09-10T13:33:47.773Z,18.61
2022-09-10T13:38:47.357Z,18.2
2022-09-10T13:43:46.870Z,17.58
2022-09-10T13:48:45.727Z,17.11
2022-09-10T13:53:44.954Z,16.91
2022-09-10T13:58:44.420Z,16.87
2022-09-10T14:00:05.645Z,16.87
2022-09-10T14:05:04.988Z,16.86
2022-09-10T14:10:03.802Z,16.85
2022-09-10T14:15:03.795Z,16.95
2022-09-10T14:20:03.591Z,17.33
2022-09-10T14:25:03.389Z,17.36
2022-09-10T14:30:01.734Z,17.2
2022-09-10T14:35:02.696Z,17.16
2022-09-10T14:40:00.825Z,17.17
2022-09-10T14:44:59.948Z,17.23
2022-09-10T14:50:02.295Z,17.4
2022-09-10T14:54:57.775Z,18.11
2022-09-10T14:59:17.927Z,18.42
2022-09-10T15:04:18.461Z,18.27
2022-09-10T15:09:18.592Z,17.95
2022-09-10T15:14:15.938Z,17.77
2022-09-10T15:19:15.969Z,17.7
2022-09-10T15:24:15.696Z,17.81
2022-09-10T15:29:14.746Z,17.87
2022-09-10T15:34:14.359Z,17.95
2022-09-10T15:39:14.512Z,17.99
2022-09-10T15:44:13.768Z,18.01
2022-09-10T15:49:22.696Z,17.93
2022-09-10T15:54:22.486Z,17.85
2022-09-10T15:59:02.744Z,17.79
2022-09-10T16:04:02.301Z,17.76
2022-09-10T16:09:00.519Z,17.75
2022-09-10T16:14:03.675Z,17.77
2022-09-10T16:18:59.649Z,17.79
2022-09-10T16:23:59.090Z,17.83
2022-09-10T16:28:59.278Z,17.86
2022-09-10T16:33:56.570Z,17.85
2022-09-10T16:38:56.418Z,17.84
2022-09-10T16:43:56.298Z,17.84
2022-09-10T16:48:55.831Z,17.83
2022-09-10T16:53:55.015Z,17.79
2022-09-10T16:58:41.257Z,17.74
2022-09-10T17:03:41.551Z,17.65
2022-09-10T17:08:40.433Z,17.45
2022-09-10T17:13:39.469Z,17.28
2022-09-10T17:18:39.041Z,17.06
2022-09-10T17:23:39.199Z,16.86
2022-09-10T17:28:38.559Z,16.7
2022-09-10T17:33:36.906Z,16.59
2022-09-10T17:38:36.338Z,16.51
2022-09-10T17:43:36.385Z,16.44
2022-09-10T17:48:35.241Z,16.37
2022-09-10T17:53:35.803Z,16.29
2022-09-10T17:58:32.897Z,16.23
2022-09-10T17:59:54.057Z,16.21
2022-09-10T18:04:54.004Z,16.18
2022-09-10T18:09:53.093Z,16.1
2022-09-10T18:14:52.506Z,16.06
2022-09-10T18:19:51.787Z,15.99
2022-09-10T18:24:51.385Z,15.95
2022-09-10T18:29:51.135Z,15.89
2022-09-10T18:34:50.218Z,15.85
2022-09-10T18:39:49.273Z,15.76
2022-09-10T18:44:49.438Z,15.76
2022-09-10T18:49:48.439Z,15.74
2022-09-10T18:54:47.085Z,15.73
2022-09-10T18:59:04.914Z,15.72
2022-09-10T19:04:04.963Z,15.78
2022-09-10T19:09:04.057Z,15.82
2022-09-10T19:14:03.453Z,15.85
2022-09-10T19:19:02.745Z,15.95
2022-09-10T19:24:02.593Z,16
2022-09-10T19:29:02.823Z,16.03
2022-09-10T19:34:02.047Z,16.02
2022-09-10T19:39:00.656Z,16
2022-09-10T19:43:59.939Z,15.92
2022-09-10T19:49:00.160Z,15.87
2022-09-10T19:53:59.142Z,15.8
2022-09-10T19:58:57.815Z,15.75
2022-09-10T20:03:57.089Z,15.71
2022-09-10T20:08:57.179Z,15.69
2022-09-10T20:13:56.192Z,15.66
2022-09-10T20:18:57.136Z,15.65
2022-09-10T20:23:54.008Z,15.64
2022-09-10T20:28:53.724Z,15.65
2022-09-10T20:33:54.347Z,15.66
2022-09-10T20:38:52.474Z,15.68
2022-09-10T20:43:51.752Z,15.67
2022-09-10T20:48:51.939Z,15.64
2022-09-10T20:53:50.952Z,15.58
2022-09-10T20:58:51.711Z,15.51
2022-09-10T21:03:48.539Z,15.41
2022-09-10T21:08:48.186Z,15.34
2022-09-10T21:13:48.108Z,15.24
2022-09-10T21:18:50.911Z,15.14
2022-09-10T21:23:46.496Z,15.09
2022-09-10T21:28:46.678Z,15.02
2022-09-10T21:33:46.588Z,14.98
2022-09-10T21:38:46.113Z,14.96
2022-09-10T21:43:44.903Z,14.95
2022-09-10T21:48:44.568Z,14.95
2022-09-10T21:53:44.243Z,14.95
2022-09-10T21:58:44.810Z,14.98
2022-09-10T22:03:43.687Z,14.99
2022-09-10T22:08:42.030Z,15
2022-09-10T22:13:41.548Z,15.01
2022-09-10T22:18:41.942Z,15.04
2022-09-10T22:23:40.828Z,15.04
2022-09-10T22:28:40.326Z,15.08
2022-09-10T22:33:39.874Z,15.14
2022-09-10T22:38:39.508Z,15.17
2022-09-10T22:43:38.669Z,15.21
2022-09-10T22:48:36.955Z,15.24
2022-09-10T22:53:36.172Z,15.25
2022-09-10T22:58:35.923Z,15.24
2022-09-10T22:59:57.625Z,15.24
2022-09-10T23:04:55.914Z,15.24
2022-09-10T23:09:55.401Z,15.19
2022-09-10T23:14:55.516Z,15.26
2022-09-10T23:19:54.554Z,15.25
2022-09-10T23:24:55.284Z,15.25
2022-09-10T23:29:52.302Z,15.23
2022-09-10T23:34:52.033Z,15.24
2022-09-10T23:39:51.919Z,15.22
2022-09-10T23:44:51.499Z,15.27
2022-09-10T23:49:50.686Z,15.29
2022-09-10T23:54:50.213Z,15.31
2022-09-10T23:58:55.415Z,15.35
